createdAt,value
2018-11-22T12:17:40.147Z,36.93
2018-11-22T12:22:43.849Z,42.17
2018-11-22T12:27:47.359Z,35.63
2018-11-22T12:32:55.323Z,41.30
2018-11-22T12:38:03.307Z,35.60
2018-11-22T12:43:05.547Z,41.20
2018-11-22T12:48:07.786Z,34.77
2018-11-22T12:53:10.006Z,36.53
2018-11-22T12:58:12.217Z,42.17
2018-11-22T13:03:14.444Z,37.40
2018-11-22T13:08:16.681Z,36.90
2018-11-22T13:13:19.214Z,34.73
2018-11-22T13:18:21.431Z,34.70
2018-11-22T13:23:23.658Z,35.43
2018-11-22T13:28:25.870Z,41.17
2018-11-22T13:33:28.098Z,41.10
2018-11-22T13:38:30.303Z,35.60
2018-11-22T13:43:32.556Z,44.30
2018-11-22T13:48:34.760Z,36.10
2018-11-22T13:53:36.958Z,35.93
2018-11-22T13:58:39.174Z,43.43
2018-11-22T14:03:41.375Z,38.60
2018-11-22T14:08:43.586Z,39.67
2018-11-22T14:13:45.798Z,41.27
2018-11-22T14:18:48.004Z,39.83
2018-11-22T14:23:50.203Z,38.77
2018-11-22T14:28:52.406Z,37.83
2018-11-22T14:33:54.603Z,37.90
2018-11-22T14:38:56.811Z,41.60
2018-11-22T14:43:59.038Z,35.83
2018-11-22T14:49:01.244Z,41.13
2018-11-22T14:54:03.651Z,37.33
2018-11-22T14:59:05.902Z,44.03
2018-11-22T15:04:08.102Z,37.03
2018-11-22T15:09:10.503Z,44.47
2018-11-22T15:14:12.771Z,40.83
2018-11-22T15:19:14.978Z,38.00
2018-11-22T15:24:17.187Z,38.27
2018-11-22T15:29:19.423Z,37.60
2018-11-22T15:34:21.627Z,39.67
2018-11-22T15:39:23.819Z,38.63
2018-11-22T15:44:26.062Z,47.33
2018-11-22T15:49:28.266Z,42.73
2018-11-22T15:54:37.258Z,42.13
2018-11-22T15:59:39.411Z,41.67
2018-11-22T16:04:41.623Z,41.50
2018-11-22T16:09:43.842Z,36.23
2018-11-22T16:14:53.042Z,38.70
2018-11-22T16:19:55.276Z,47.93
2018-11-22T16:24:57.503Z,41.67
2018-11-22T16:29:59.723Z,40.50
2018-11-22T16:35:01.959Z,43.73
2018-11-22T16:40:05.691Z,79.83
2018-11-22T16:45:14.339Z,95.73
2018-11-22T16:50:17.990Z,54.77
2018-11-22T16:55:20.682Z,44.60
2018-11-22T17:00:24.915Z,45.47
2018-11-22T17:05:27.419Z,42.60
2018-11-22T17:10:30.522Z,47.67
2018-11-22T17:15:34.039Z,40.93
2018-11-22T17:20:36.305Z,44.80
2018-11-22T17:25:38.542Z,43.97
2018-11-22T17:30:42.277Z,39.10
2018-11-22T17:35:44.519Z,39.33
2018-11-22T17:40:48.050Z,37.17
2018-11-22T17:45:51.351Z,39.50
2018-11-22T17:50:53.638Z,40.03
2018-11-22T17:55:55.862Z,51.93
2018-11-22T18:00:58.078Z,42.17
2018-11-22T18:06:00.291Z,49.63
2018-11-22T18:11:02.769Z,48.43
2018-11-22T18:16:05.031Z,46.17
2018-11-22T18:21:07.259Z,54.60
2018-11-22T18:26:09.485Z,48.20
2018-11-22T18:31:11.707Z,47.70
2018-11-22T18:36:13.938Z,46.53
2018-11-22T18:41:16.193Z,52.33
2018-11-22T18:46:18.431Z,43.87
2018-11-22T18:51:20.662Z,47.93
2018-11-22T18:56:22.883Z,49.60
2018-11-22T19:01:25.107Z,47.20
2018-11-22T19:06:27.346Z,47.80
2018-11-22T19:11:29.571Z,45.50
2018-11-22T19:16:31.959Z,46.80
2018-11-22T19:21:34.281Z,47.00
2018-11-22T19:26:36.526Z,49.70
2018-11-22T19:31:38.747Z,53.30
2018-11-22T19:36:42.238Z,55.37
2018-11-22T19:41:44.466Z,53.53
2018-11-22T19:46:47.143Z,55.57
2018-11-22T19:51:49.478Z,48.13
2018-11-22T19:56:51.703Z,45.50
2018-11-22T20:02:00.614Z,45.97
2018-11-22T20:07:02.937Z,56.33
2018-11-22T20:12:05.191Z,58.53
2018-11-22T20:17:07.492Z,43.30
2018-11-22T20:22:10.753Z,46.00
2018-11-22T20:27:13.924Z,61.00
2018-11-22T20:32:16.134Z,48.90
2018-11-22T20:37:18.362Z,148.40
2018-11-22T20:42:20.606Z,126.33
2018-11-22T20:47:22.815Z,128.90
2018-11-22T20:52:25.063Z,49.63
2018-11-22T20:57:27.295Z,53.60
2018-11-22T21:02:29.608Z,55.20
2018-11-22T21:07:32.071Z,52.30
2018-11-22T21:12:34.283Z,54.13
2018-11-22T21:17:36.655Z,47.13
2018-11-22T21:22:38.927Z,56.13
2018-11-22T21:27:41.166Z,63.20
2018-11-22T21:32:44.336Z,51.60
2018-11-22T21:37:47.133Z,51.90
2018-11-22T21:42:49.407Z,52.70
2018-11-22T21:47:52.735Z,60.87
2018-11-22T21:52:54.967Z,50.50
2018-11-22T21:57:58.332Z,62.47
2018-11-22T22:03:02.974Z,59.60
2018-11-22T22:08:05.539Z,59.93
2018-11-22T22:13:07.779Z,50.10
2018-11-22T22:18:10.007Z,49.83
2018-11-22T22:23:13.600Z,52.67
2018-11-22T22:28:14.447Z,49.40
2018-11-22T22:33:16.679Z,54.63
2018-11-22T22:38:19.111Z,45.90
2018-11-22T22:43:21.331Z,51.50
2018-11-22T22:48:23.566Z,50.90
2018-11-22T22:53:25.806Z,57.50
2018-11-22T22:58:28.055Z,53.43
2018-11-22T23:03:30.453Z,63.63
2018-11-22T23:08:32.666Z,57.70
2018-11-22T23:13:34.912Z,56.60
2018-11-22T23:18:37.157Z,58.13
2018-11-22T23:23:39.390Z,58.27
2018-11-22T23:28:41.606Z,64.23
2018-11-22T23:33:43.827Z,60.50
2018-11-22T23:38:46.061Z,69.47
2018-11-22T23:43:48.262Z,65.13
2018-11-22T23:48:50.479Z,64.27
2018-11-22T23:53:52.714Z,67.97
2018-11-22T23:58:54.958Z,66.83
